Time;durP1;ratioP1;P1;durP2;ratioP2;P2;SDS_P1;SDS_P2;PMS_P1;PMS_P2;Temp;Humidity;BMP_temperature;BMP_pressure;BME280_temperature;BME280_humidity;BME280_pressure;Samples;Min_cycle;Max_cycle;Signal;HPM_P1;HPM_P2
2023/03/22 00:02:13;;;;;;;;;6.00;5.00;;;;;14.13;61.69;100524.78;5073016;28;45878;-74
2023/03/22 00:04:41;;;;;;;;;8.00;5.00;;;;;14.12;62.13;100528.38;5073255;28;45754;-74
2023/03/22 00:07:07;;;;;;;;;5.00;5.00;;;;;14.08;61.86;100523.50;5088616;27;47277;-75
2023/03/22 00:12:54;;;;;;;;;5.00;3.00;;;;;13.96;62.10;100514.88;5072507;28;45632;-75
2023/03/22 00:15:21;;;;;;;;;5.00;4.00;;;;;13.97;61.93;100518.34;5072773;27;46129;-74
2023/03/22 00:17:47;;;;;;;;;6.25;5.00;;;;;13.88;62.28;100501.50;5088642;27;47965;-73
2023/03/22 00:20:12;;;;;;;;;4.50;4.25;;;;;13.86;62.23;100514.84;5072650;28;46707;-74
2023/03/22 00:22:38;;;;;;;;;4.50;4.00;;;;;13.80;62.44;100501.38;5072911;27;45584;-74
2023/03/22 00:28:25;;;;;;;;;7.50;3.00;;;;;13.61;62.09;100483.66;5072336;28;45671;-74
2023/03/22 00:30:53;;;;;;;;;5.50;4.50;;;;;13.62;62.49;100490.59;5070898;28;47333;-74
2023/03/22 00:33:19;;;;;;;;;4.50;4.00;;;;;13.54;62.58;100485.19;5072721;27;45671;-73
2023/03/22 00:35:49;;;;;;;;;6.00;4.00;;;;;13.55;62.15;100486.00;5072751;27;45846;-75
2023/03/22 00:38:15;;;;;;;;;4.50;4.00;;;;;13.53;62.10;100480.03;5072550;27;45612;-74
2023/03/22 00:40:40;;;;;;;;;2.75;2.25;;;;;13.46;62.01;100471.81;5072327;28;46019;-75
2023/03/22 00:43:06;;;;;;;;;2.75;2.75;;;;;13.45;62.07;100476.25;5072108;27;45695;-75
2023/03/22 00:45:35;;;;;;;;;4.00;3.25;;;;;13.42;62.35;100471.25;5072153;27;45606;-74
2023/03/22 00:48:00;;;;;;;;;4.50;2.75;;;;;13.40;62.48;100477.59;5072158;27;45959;-74
2023/03/22 00:50:25;;;;;;;;;2.50;2.25;;;;;13.26;62.47;100449.00;5072441;27;45546;-73
2023/03/22 00:52:51;;;;;;;;;5.25;3.00;;;;;13.31;61.90;100463.44;5072740;27;45675;-75
2023/03/22 00:58:38;;;;;;;;;4.00;2.00;;;;;13.22;62.51;100455.50;5072292;28;46084;-73
2023/03/22 01:01:04;;;;;;;;;2.00;1.25;;;;;13.20;62.31;100454.78;5072025;27;47100;-77
2023/03/22 01:03:29;;;;;;;;;2.00;1.25;;;;;13.19;62.38;100455.75;5087819;27;45650;-74
2023/03/22 01:05:55;;;;;;;;;2.00;1.00;;;;;13.19;62.17;100458.38;5072919;28;45798;-74
2023/03/22 01:08:21;;;;;;;;;2.50;1.00;;;;;13.18;62.65;100456.69;5075440;28;47518;-75
2023/03/22 01:14:35;;;;;;;;;2.00;1.00;;;;;13.11;62.66;100456.38;5075588;28;45723;-75
2023/03/22 01:17:00;;;;;;;;;2.00;1.00;;;;;13.08;62.65;100448.72;5075564;28;45884;-75
2023/03/22 01:19:26;;;;;;;;;1.00;1.00;;;;;13.09;62.24;100446.94;5074093;28;47758;-75
2023/03/22 01:21:52;;;;;;;;;1.50;1.00;;;;;13.04;62.46;100440.25;5074948;28;47093;-74
2023/03/22 01:24:18;;;;;;;;;2.00;0.75;;;;;13.03;62.82;100437.75;5075470;27;45824;-74
2023/03/22 01:26:43;;;;;;;;;1.00;1.00;;;;;12.98;62.64;100432.88;5075908;28;45557;-74
2023/03/22 01:29:09;;;;;;;;;1.75;0.25;;;;;13.00;62.56;100428.34;5075250;28;45814;-74
2023/03/22 01:31:34;;;;;;;;;1.00;0.50;;;;;12.93;62.77;100418.44;5074910;27;46018;-74
2023/03/22 01:34:00;;;;;;;;;2.75;1.25;;;;;12.93;62.61;100413.19;5074931;28;45671;-74
2023/03/22 01:36:25;;;;;;;;;1.50;1.00;;;;;12.92;62.72;100408.88;5075985;28;45845;-74
2023/03/22 01:38:50;;;;;;;;;2.00;1.00;;;;;12.90;62.87;100406.38;5075062;27;46756;-75
2023/03/22 01:41:16;;;;;;;;;1.00;1.00;;;;;12.84;62.74;100406.91;5074723;27;47021;-74
2023/03/22 01:43:42;;;;;;;;;2.50;1.00;;;;;12.83;63.01;100400.00;5075136;27;45597;-74
2023/03/22 01:46:08;;;;;;;;;2.75;1.00;;;;;12.82;62.98;100402.75;5075236;28;45933;-74
2023/03/22 01:48:44;;;;;;;;;2.50;1.00;;;;;12.77;63.08;100397.88;5074757;27;46531;-74
2023/03/22 01:51:15;;;;;;;;;2.00;1.00;;;;;12.75;62.97;100391.06;5074547;27;46420;-74
2023/03/22 02:00:14;;;;;;;;;3.75;1.00;;;;;12.61;63.58;100376.44;5074357;28;45738;-74
2023/03/22 02:02:41;;;;;;;;;1.00;1.00;;;;;12.63;63.96;100381.59;5074964;27;46149;-76
2023/03/22 02:05:07;;;;;;;;;1.75;1.00;;;;;12.53;63.66;100363.09;5074683;27;46031;-75
2023/03/22 02:07:34;;;;;;;;;1.50;0.75;;;;;12.55;63.97;100367.28;5075283;28;45495;-74
2023/03/22 02:10:00;;;;;;;;;1.75;1.00;;;;;12.51;63.93;100358.00;5074657;27;45693;-74
2023/03/22 02:12:46;;;;;;;;;2.00;1.00;;;;;12.51;63.96;100347.50;5074942;27;46076;-74
2023/03/22 02:15:23;;;;;;;;;3.00;1.75;;;;;12.48;64.29;100352.97;5075052;28;45715;-74
2023/03/22 02:17:50;;;;;;;;;0.50;0.50;;;;;12.48;64.23;100355.59;5090424;27;45875;-73
2023/03/22 02:20:37;;;;;;;;;2.00;1.00;;;;;12.46;64.06;100344.41;5073556;27;46356;-73
2023/03/22 02:23:26;;;;;;;;;1.00;1.00;;;;;12.44;64.18;100341.06;5074674;27;46067;-74
2023/03/22 02:26:12;;;;;;;;;2.75;1.00;;;;;12.45;64.20;100332.22;5074322;28;45726;-72
2023/03/22 02:29:12;;;;;;;;;2.50;1.00;;;;;12.45;64.25;100340.09;5090085;27;46082;-73
2023/03/22 02:31:53;;;;;;;;;2.50;1.00;;;;;12.46;64.45;100340.94;5031132;28;46460;-74
2023/03/22 02:34:37;;;;;;;;;2.00;1.00;;;;;12.45;64.16;100332.22;5031611;28;46094;-73
2023/03/22 02:37:32;;;;;;;;;2.75;1.00;;;;;12.41;64.24;100328.19;5031092;28;45852;-74
2023/03/22 02:43:45;;;;;;;;;1.50;1.00;;;;;12.37;64.09;100331.19;5031099;28;45757;-74
2023/03/22 02:46:37;;;;;;;;;2.00;1.00;;;;;12.37;64.40;100339.06;5031324;28;45670;-74
2023/03/22 02:49:06;;;;;;;;;1.50;1.00;;;;;12.35;64.33;100346.25;5031764;28;45962;-74
2023/03/22 02:51:55;;;;;;;;;2.25;2.00;;;;;12.27;64.22;100335.53;5031477;28;45873;-74
2023/03/22 03:01:02;;;;;;;;;3.00;1.00;;;;;12.22;64.41;100338.53;4990955;28;46115;-74
2023/03/22 03:03:30;;;;;;;;;1.00;1.00;;;;;12.22;64.44;100342.97;4991634;28;45824;-74
2023/03/22 03:06:02;;;;;;;;;0.50;0.00;;;;;12.22;64.39;100342.97;4992264;28;46228;-74
2023/03/22 03:08:29;;;;;;;;;2.75;1.00;;;;;12.22;64.88;100350.84;5013544;28;46420;-77
2023/03/22 03:10:55;;;;;;;;;2.00;1.00;;;;;12.17;64.79;100349.44;5030217;28;45710;-76
2023/03/22 03:13:20;;;;;;;;;2.00;1.00;;;;;12.13;64.86;100339.31;5031053;28;45688;-74
2023/03/22 03:15:52;;;;;;;;;1.25;1.00;;;;;12.15;64.98;100347.88;5030959;28;47262;-75
2023/03/22 03:18:31;;;;;;;;;1.25;1.25;;;;;12.19;64.81;100354.56;5031163;28;46236;-74
2023/03/22 03:21:13;;;;;;;;;2.50;1.00;;;;;12.17;64.91;100351.22;5030920;28;45909;-73
2023/03/22 03:23:45;;;;;;;;;0.75;0.75;;;;;12.15;65.03;100345.25;5031376;28;45783;-74
2023/03/22 03:26:36;;;;;;;;;2.25;1.00;;;;;12.12;65.02;100346.34;5030447;28;46016;-73
2023/03/22 03:29:15;;;;;;;;;0.50;0.25;;;;;12.08;65.33;100333.59;5030507;28;46191;-73
2023/03/22 03:31:49;;;;;;;;;4.00;1.50;;;;;12.09;65.40;100341.31;5055178;28;46096;-74
2023/03/22 03:34:23;;;;;;;;;1.50;1.00;;;;;12.09;65.66;100343.16;5074204;27;45572;-74
2023/03/22 03:36:59;;;;;;;;;2.25;2.00;;;;;12.07;65.52;100342.44;5073805;27;45527;-74
2023/03/22 03:39:29;;;;;;;;;1.25;1.00;;;;;12.07;65.62;100330.13;5073587;27;47178;-73
2023/03/22 03:41:55;;;;;;;;;1.00;1.00;;;;;12.08;65.42;100334.44;5073339;27;45664;-74
2023/03/22 03:44:22;;;;;;;;;3.00;2.25;;;;;12.06;65.59;100325.84;5072894;27;45728;-74
2023/03/22 03:46:49;;;;;;;;;1.00;1.00;;;;;12.11;65.36;100334.16;5072954;27;46556;-74
2023/03/22 03:49:16;;;;;;;;;2.00;1.00;;;;;12.06;65.67;100317.97;5073075;27;46158;-74
2023/03/22 03:51:52;;;;;;;;;0.50;0.50;;;;;12.02;65.37;100327.06;5072888;28;45660;-74
2023/03/22 03:54:18;;;;;;;;;2.75;1.00;;;;;12.15;65.31;100334.75;5073482;27;45760;-76
2023/03/22 03:56:46;;;;;;;;;3.00;1.00;;;;;12.15;65.35;100322.44;5073309;28;46466;-77
2023/03/22 03:59:14;;;;;;;;;2.00;1.00;;;;;12.14;65.50;100336.56;5073217;27;46293;-76
2023/03/22 04:01:40;;;;;;;;;1.00;0.50;;;;;12.09;65.39;100322.94;5072779;28;45710;-75
2023/03/22 04:04:06;;;;;;;;;4.00;1.00;;;;;12.11;65.47;100322.81;5073085;27;45612;-75
2023/03/22 04:06:33;;;;;;;;;4.00;1.00;;;;;12.11;65.50;100342.03;5073166;27;45644;-74
2023/03/22 04:09:00;;;;;;;;;2.00;1.00;;;;;12.19;65.36;100344.06;5073358;28;45954;-74
2023/03/22 04:11:26;;;;;;;;;2.00;1.00;;;;;12.16;65.45;100342.50;5072421;27;45785;-74
2023/03/22 04:13:51;;;;;;;;;2.00;1.00;;;;;12.21;65.42;100339.50;5073202;28;45852;-75
2023/03/22 04:16:16;;;;;;;;;2.25;0.75;;;;;12.20;65.61;100341.28;5072567;27;46660;-74
2023/03/22 04:18:42;;;;;;;;;0.75;0.00;;;;;12.20;65.52;100332.56;5072737;27;47091;-75
2023/03/22 04:21:07;;;;;;;;;0.00;0.00;;;;;12.13;65.22;100308.63;5072891;27;45722;-75
2023/03/22 04:23:33;;;;;;;;;0.25;0.00;;;;;12.21;65.29;100329.00;5073318;28;45697;-75
2023/03/22 04:25:58;;;;;;;;;2.00;1.00;;;;;12.22;65.14;100333.28;5072619;27;47349;-74
2023/03/22 04:28:25;;;;;;;;;0.00;0.00;;;;;12.20;65.17;100327.31;5072647;27;46148;-74
2023/03/22 04:30:51;;;;;;;;;1.75;1.00;;;;;12.21;65.22;100318.47;5072393;27;45644;-74
2023/03/22 04:33:17;;;;;;;;;1.00;0.00;;;;;12.25;65.00;100316.47;5071419;28;45796;-75
2023/03/22 04:35:45;;;;;;;;;1.75;0.00;;;;;12.28;64.96;100321.44;5072988;28;46623;-75
2023/03/22 04:38:10;;;;;;;;;1.00;0.00;;;;;12.28;64.87;100303.91;5072486;28;46131;-74
2023/03/22 04:40:37;;;;;;;;;1.25;1.00;;;;;12.32;65.01;100328.94;5072952;27;45807;-74
2023/03/22 04:46:24;;;;;;;;;0.00;0.00;;;;;12.29;64.77;100310.81;5076058;28;46077;-76
2023/03/22 04:48:49;;;;;;;;;2.00;0.00;;;;;12.33;64.96;100317.47;5075758;27;45718;-75
2023/03/22 04:51:15;;;;;;;;;2.50;1.00;;;;;12.31;65.00;100311.50;5074499;28;45719;-73
2023/03/22 04:53:40;;;;;;;;;1.00;1.00;;;;;12.32;64.78;100317.59;5076150;27;45792;-73
2023/03/22 04:56:08;;;;;;;;;0.00;0.00;;;;;12.33;65.04;100314.00;5075590;28;46353;-75
2023/03/22 05:01:55;;;;;;;;;2.00;0.00;;;;;12.30;65.08;100304.59;5075399;28;45675;-76
2023/03/22 05:04:21;;;;;;;;;0.00;0.00;;;;;12.32;65.00;100313.19;5076455;27;45831;-76
2023/03/22 05:06:46;;;;;;;;;0.75;0.00;;;;;12.32;65.04;100297.41;5075678;28;45663;-76
2023/03/22 05:09:12;;;;;;;;;0.00;0.00;;;;;12.27;64.95;100296.97;5075824;27;45651;-77
2023/03/22 05:11:39;;;;;;;;;0.00;0.00;;;;;12.32;64.79;100301.84;5074643;27;45848;-76
2023/03/22 05:14:06;;;;;;;;;1.75;1.00;;;;;12.25;64.86;100279.69;5074250;28;46012;-74
2023/03/22 05:16:31;;;;;;;;;2.00;0.75;;;;;12.33;65.07;100311.38;5076019;27;45722;-75
2023/03/22 05:18:56;;;;;;;;;1.25;0.00;;;;;12.32;65.07;100299.19;5075848;27;45750;-76
2023/03/22 05:21:27;;;;;;;;;1.50;1.00;;;;;12.35;64.78;100312.94;5075346;28;46168;-76
2023/03/22 05:23:57;;;;;;;;;1.75;0.00;;;;;12.29;64.79;100305.56;5075267;27;45749;-75
2023/03/22 05:26:25;;;;;;;;;1.00;0.00;;;;;12.33;65.01;100299.09;5075762;27;46619;-76
2023/03/22 05:32:12;;;;;;;;;0.00;0.00;;;;;12.36;64.91;100298.81;5075163;28;45712;-76
2023/03/22 05:34:38;;;;;;;;;0.25;0.25;;;;;12.38;64.97;100293.44;5075725;28;45757;-74
2023/03/22 05:37:04;;;;;;;;;0.75;0.75;;;;;12.34;64.89;100285.00;5077080;28;45699;-75
2023/03/22 05:39:29;;;;;;;;;0.75;0.75;;;;;12.40;65.01;100289.75;5076283;27;46345;-75
2023/03/22 05:41:54;;;;;;;;;0.00;0.00;;;;;12.35;64.90;100296.34;5074783;27;45654;-74
2023/03/22 05:44:20;;;;;;;;;1.00;1.00;;;;;12.41;64.68;100290.59;5091124;27;45794;-73
2023/03/22 05:46:45;;;;;;;;;1.50;1.50;;;;;12.42;64.66;100293.06;5074512;27;46200;-75
2023/03/22 05:49:10;;;;;;;;;1.00;0.50;;;;;12.39;64.93;100298.56;5074766;28;46967;-74
2023/03/22 05:51:40;;;;;;;;;2.00;2.00;;;;;12.29;64.66;100266.16;5074176;27;45859;-75
2023/03/22 05:54:06;;;;;;;;;2.00;1.00;;;;;12.37;64.86;100295.25;5072773;28;46034;-74
2023/03/22 05:56:31;;;;;;;;;2.75;1.00;;;;;12.32;65.03;100273.78;5074998;27;45793;-74
2023/03/22 06:02:20;;;;;;;;;2.00;2.00;;;;;12.48;65.00;100289.09;5074911;28;45507;-75
2023/03/22 06:04:45;;;;;;;;;1.25;1.00;;;;;12.50;65.01;100290.63;5074869;27;45629;-75
2023/03/22 06:07:11;;;;;;;;;1.25;1.25;;;;;12.51;65.16;100289.69;5074621;28;47282;-73
2023/03/22 06:09:37;;;;;;;;;2.00;1.50;;;;;12.50;65.22;100274.03;5073803;27;46288;-75
2023/03/22 06:12:03;;;;;;;;;2.00;1.50;;;;;12.51;64.98;100273.91;5074569;28;45842;-73
2023/03/22 06:17:50;;;;;;;;;2.50;2.00;;;;;12.55;65.34;100280.56;5074616;28;45617;-74
2023/03/22 06:20:15;;;;;;;;;4.50;2.50;;;;;12.56;65.06;100279.59;5074164;28;45649;-76
2023/03/22 06:22:41;;;;;;;;;4.00;3.00;;;;;12.53;65.41;100281.66;5074407;27;45561;-75
2023/03/22 06:25:08;;;;;;;;;3.50;3.25;;;;;12.56;65.05;100276.16;5075146;27;45918;-73
2023/03/22 06:27:34;;;;;;;;;5.25;3.00;;;;;12.53;65.31;100279.00;5074547;27;45868;-74
2023/03/22 06:30:00;;;;;;;;;8.50;3.75;;;;;12.58;65.56;100284.72;5074541;28;46563;-74
2023/03/22 06:32:25;;;;;;;;;4.00;3.00;;;;;12.59;65.26;100297.72;5073615;28;45764;-75
2023/03/22 06:34:54;;;;;;;;;4.00;2.00;;;;;12.59;65.06;100304.78;5074827;28;45702;-74
2023/03/22 06:37:20;;;;;;;;;4.25;3.00;;;;;12.63;65.38;100311.47;5074138;27;46351;-73
2023/03/22 06:39:45;;;;;;;;;3.00;3.00;;;;;12.65;65.17;100320.03;5072762;27;46945;-73
2023/03/22 06:42:11;;;;;;;;;4.75;3.25;;;;;12.61;65.00;100310.75;5073529;28;45849;-76
2023/03/22 06:47:58;;;;;;;;;4.00;3.00;;;;;12.65;65.37;100321.81;5066982;28;45769;-75
2023/03/22 06:50:24;;;;;;;;;2.75;2.75;;;;;12.67;65.32;100328.63;5074020;27;45472;-74
2023/03/22 06:52:50;;;;;;;;;5.00;3.00;;;;;12.75;65.22;100331.44;5073677;27;45942;-76
2023/03/22 06:55:16;;;;;;;;;3.50;2.50;;;;;12.66;65.52;100316.44;5074537;27;45949;-75
2023/03/22 06:57:42;;;;;;;;;5.00;3.25;;;;;12.70;65.11;100328.38;5071518;27;45904;-73
2023/03/22 07:00:08;;;;;;;;;4.00;3.25;;;;;12.80;65.27;100349.44;5088730;27;46588;-74
2023/03/22 07:02:35;;;;;;;;;2.50;2.00;;;;;12.55;65.13;100306.84;5089050;27;45702;-75
2023/03/22 07:05:01;;;;;;;;;3.50;2.75;;;;;12.77;64.93;100333.94;5087679;27;45989;-74
2023/03/22 07:07:27;;;;;;;;;7.00;3.25;;;;;12.80;64.83;100334.50;5073550;28;47481;-74
2023/03/22 07:09:52;;;;;;;;;4.25;4.00;;;;;12.80;64.88;100338.94;5073447;28;47343;-76
2023/03/22 07:12:17;;;;;;;;;2.25;2.00;;;;;12.88;65.09;100350.47;5073598;27;45819;-75
2023/03/22 07:14:43;;;;;;;;;2.75;2.75;;;;;12.81;64.91;100325.66;5073242;27;45649;-74
2023/03/22 07:17:08;;;;;;;;;4.00;2.75;;;;;12.89;64.90;100343.44;5073596;27;45704;-75
2023/03/22 07:19:33;;;;;;;;;3.50;3.00;;;;;12.91;64.88;100350.22;5073096;27;47503;-76
2023/03/22 07:21:59;;;;;;;;;3.00;2.50;;;;;12.91;64.71;100344.13;5073691;27;45603;-74
2023/03/22 07:24:24;;;;;;;;;4.75;2.00;;;;;12.90;64.76;100342.47;5073698;28;45645;-75
2023/03/22 07:26:49;;;;;;;;;4.50;3.00;;;;;12.91;65.14;100352.00;5073196;28;47346;-75
2023/03/22 07:29:15;;;;;;;;;4.00;3.00;;;;;12.92;64.79;100351.03;5073237;27;46314;-74
2023/03/22 07:31:41;;;;;;;;;2.75;2.00;;;;;12.97;64.75;100348.84;5073256;27;45672;-75
2023/03/22 07:34:07;;;;;;;;;2.00;2.00;;;;;12.97;65.08;100351.47;5073673;27;45806;-76
2023/03/22 07:36:32;;;;;;;;;3.75;3.00;;;;;13.01;64.78;100345.81;5073338;27;46634;-75
2023/03/22 07:38:58;;;;;;;;;2.25;2.00;;;;;13.02;64.92;100338.78;5073608;28;45760;-76
2023/03/22 07:41:24;;;;;;;;;11.75;10.00;;;;;13.08;64.94;100353.19;5073271;28;45679;-75
2023/03/22 07:43:50;;;;;;;;;6.25;4.00;;;;;13.04;64.57;100342.94;5073412;28;45860;-75
2023/03/22 07:46:15;;;;;;;;;3.00;2.75;;;;;13.14;64.81;100353.53;5073514;28;46379;-74
2023/03/22 07:48:41;;;;;;;;;2.50;2.25;;;;;13.18;64.77;100359.38;5073084;28;45754;-75
2023/03/22 07:51:07;;;;;;;;;3.25;3.00;;;;;13.19;64.43;100363.66;5072827;27;45578;-73
2023/03/22 07:53:32;;;;;;;;;6.75;3.75;;;;;13.23;64.86;100354.53;5073180;27;45650;-73
2023/03/22 07:55:58;;;;;;;;;5.50;3.00;;;;;13.24;64.41;100375.47;5073255;27;46624;-75
2023/03/22 07:58:23;;;;;;;;;3.00;3.00;;;;;13.24;64.83;100366.72;5073237;28;46843;-75
2023/03/22 08:00:49;;;;;;;;;4.50;3.00;;;;;13.29;65.01;100372.44;5088485;27;45544;-74
2023/03/22 08:03:14;;;;;;;;;3.25;2.00;;;;;13.31;64.78;100362.63;5073497;28;45515;-75
2023/03/22 08:05:41;;;;;;;;;4.00;3.00;;;;;13.26;64.46;100357.75;5072899;27;47097;-74
2023/03/22 08:08:07;;;;;;;;;2.00;1.00;;;;;13.29;64.72;100357.47;5073261;27;46087;-74
2023/03/22 08:10:32;;;;;;;;;2.75;2.00;;;;;13.33;64.42;100371.22;5088415;27;45923;-74
2023/03/22 08:12:58;;;;;;;;;4.00;3.00;;;;;13.30;64.41;100371.47;5073061;27;45785;-74
2023/03/22 08:18:45;;;;;;;;;3.50;3.00;;;;;13.33;64.38;100374.66;5076346;28;45958;-74
2023/03/22 08:21:10;;;;;;;;;3.00;2.75;;;;;13.33;64.56;100373.84;5075993;28;45595;-75
2023/03/22 08:23:35;;;;;;;;;4.00;2.00;;;;;13.36;64.46;100377.03;5076655;28;45592;-73
2023/03/22 08:26:01;;;;;;;;;2.25;2.25;;;;;13.35;64.55;100367.47;5076421;27;46214;-75
2023/03/22 08:28:26;;;;;;;;;7.25;3.00;;;;;13.33;64.84;100369.41;5076225;27;46017;-75
2023/03/22 08:34:13;;;;;;;;;3.75;2.75;;;;;13.34;64.57;100365.81;5076553;28;45549;-75
2023/03/22 08:36:39;;;;;;;;;2.00;2.00;;;;;13.36;64.81;100373.56;5076181;28;46293;-73
2023/03/22 08:39:05;;;;;;;;;3.00;2.00;;;;;13.38;65.20;100375.13;5076083;27;46139;-74
2023/03/22 08:41:30;;;;;;;;;4.25;2.00;;;;;13.34;65.05;100349.19;5075995;27;45795;-74
2023/03/22 08:43:56;;;;;;;;;4.00;3.25;;;;;13.41;65.04;100364.31;5076800;28;45740;-73
2023/03/22 08:46:22;;;;;;;;;3.50;2.25;;;;;13.45;64.87;100378.88;5076042;27;46237;-74
2023/03/22 08:48:49;;;;;;;;;3.00;2.00;;;;;13.49;64.81;100373.34;5075904;27;45746;-74
2023/03/22 08:51:18;;;;;;;;;4.75;4.25;;;;;13.53;64.79;100365.06;5091518;27;45696;-74
2023/03/22 08:53:44;;;;;;;;;4.00;4.00;;;;;13.51;65.29;100353.81;5076109;27;45552;-75
2023/03/22 08:56:10;;;;;;;;;4.00;3.00;;;;;13.55;65.38;100339.41;5076331;27;46896;-74
2023/03/22 08:58:35;;;;;;;;;4.50;4.00;;;;;13.50;65.17;100332.88;5076114;28;45560;-73
2023/03/22 09:04:22;;;;;;;;;4.50;3.75;;;;;13.61;65.09;100359.94;5076204;28;45604;-76
2023/03/22 09:06:48;;;;;;;;;3.00;2.50;;;;;13.60;65.03;100344.31;5075747;27;46373;-73
2023/03/22 09:09:13;;;;;;;;;3.00;2.50;;;;;13.57;65.60;100348.03;5075494;27;47048;-74
2023/03/22 09:11:41;;;;;;;;;2.50;2.50;;;;;13.54;65.34;100344.84;5075476;27;45619;-75
2023/03/22 09:14:08;;;;;;;;;3.25;2.50;;;;;13.56;65.42;100345.50;5075758;27;45829;-75
2023/03/22 09:16:33;;;;;;;;;2.50;2.50;;;;;13.56;66.10;100342.88;5076013;27;45630;-73
2023/03/22 09:19:00;;;;;;;;;2.00;2.00;;;;;13.51;65.82;100318.75;5075974;27;45895;-72
2023/03/22 09:21:26;;;;;;;;;4.00;3.25;;;;;13.57;66.08;100348.03;5075448;28;45608;-74
2023/03/22 09:23:51;;;;;;;;;4.75;4.00;;;;;13.58;66.38;100344.44;5075633;28;45840;-74
2023/03/22 09:26:17;;;;;;;;;8.00;3.00;;;;;13.60;66.67;100347.78;5075459;27;47306;-74
2023/03/22 09:28:44;;;;;;;;;5.25;4.00;;;;;13.58;66.32;100326.00;5074709;28;45822;-74
2023/03/22 09:34:31;;;;;;;;;6.75;4.75;;;;;13.63;66.55;100334.31;5075643;28;45709;-76
2023/03/22 09:36:57;;;;;;;;;5.00;4.00;;;;;13.60;66.54;100333.78;5075351;27;46115;-74
2023/03/22 09:39:22;;;;;;;;;4.00;3.75;;;;;13.63;66.81;100331.69;5075265;27;46219;-75
2023/03/22 09:41:54;;;;;;;;;4.75;3.75;;;;;13.66;66.58;100334.03;5075336;27;45690;-74
2023/03/22 09:44:28;;;;;;;;;5.00;3.75;;;;;13.67;66.37;100325.19;5075531;27;45961;-74
2023/03/22 09:46:58;;;;;;;;;3.00;2.75;;;;;13.62;66.79;100311.59;5075215;27;47338;-75
2023/03/22 09:49:29;;;;;;;;;4.50;3.25;;;;;13.69;66.92;100325.06;5075098;27;46100;-75
2023/03/22 09:51:55;;;;;;;;;4.00;3.00;;;;;13.70;66.57;100324.09;5075354;27;45743;-75
2023/03/22 09:54:35;;;;;;;;;4.00;3.00;;;;;13.73;66.49;100324.63;5075710;27;45732;-75
2023/03/22 09:57:00;;;;;;;;;4.50;3.50;;;;;13.74;66.97;100322.84;5075363;28;46744;-74
2023/03/22 09:59:35;;;;;;;;;4.00;4.00;;;;;13.75;66.56;100319.25;5075010;28;46520;-74
2023/03/22 10:02:30;;;;;;;;;5.00;4.00;;;;;13.73;66.70;100305.38;5075095;28;45791;-75
2023/03/22 10:05:01;;;;;;;;;4.00;3.00;;;;;13.78;66.67;100303.16;5075302;27;45580;-74
2023/03/22 10:07:51;;;;;;;;;8.50;4.50;;;;;13.75;67.01;100299.03;5075098;28;47636;-74
2023/03/22 10:10:22;;;;;;;;;5.00;4.00;;;;;13.78;67.08;100290.00;5088048;27;45995;-74
2023/03/22 10:13:05;;;;;;;;;6.25;4.75;;;;;13.78;67.06;100276.84;5074909;27;45774;-74
2023/03/22 10:15:51;;;;;;;;;5.50;5.00;;;;;13.81;66.88;100295.84;5074698;28;45659;-74
2023/03/22 10:18:28;;;;;;;;;4.00;4.00;;;;;13.82;67.13;100302.75;5074830;28;46497;-74
2023/03/22 10:21:05;;;;;;;;;5.25;4.50;;;;;13.84;67.40;100300.81;5074148;27;46548;-74
2023/03/22 10:23:55;;;;;;;;;5.00;4.25;;;;;13.86;66.91;100305.97;5074213;27;45719;-74
2023/03/22 10:26:28;;;;;;;;;3.50;3.50;;;;;13.84;67.00;100303.44;5074105;27;45902;-74
2023/03/22 10:29:03;;;;;;;;;4.00;3.25;;;;;13.80;66.94;100288.91;5074038;27;45855;-75
2023/03/22 10:31:30;;;;;;;;;4.25;3.25;;;;;13.84;66.58;100314.00;5074279;27;46291;-75
2023/03/22 10:34:05;;;;;;;;;3.50;3.00;;;;;13.77;66.79;100276.00;5073342;27;45663;-72
2023/03/22 10:36:34;;;;;;;;;4.50;3.50;;;;;13.82;67.27;100273.78;5070876;28;45968;-73
2023/03/22 10:39:23;;;;;;;;;4.75;4.25;;;;;13.81;67.04;100263.41;5072282;28;45625;-74
2023/03/22 10:41:52;;;;;;;;;5.75;4.00;;;;;13.90;66.73;100269.63;5072693;28;46834;-72
2023/03/22 10:44:20;;;;;;;;;5.00;4.00;;;;;13.92;66.70;100279.06;5072912;27;45782;-74
2023/03/22 10:46:49;;;;;;;;;4.50;4.00;;;;;13.95;66.71;100285.84;5072179;27;45845;-74
2023/03/22 10:49:37;;;;;;;;;3.25;3.25;;;;;13.98;66.88;100283.75;5072400;27;47580;-73
2023/03/22 10:52:33;;;;;;;;;5.00;3.00;;;;;14.00;66.67;100273.94;5073765;27;46291;-73
2023/03/22 10:54:59;;;;;;;;;7.25;4.00;;;;;14.02;66.85;100266.72;5068863;27;45806;-72
2023/03/22 10:57:27;;;;;;;;;4.00;4.00;;;;;14.02;66.62;100250.09;5073966;27;45765;-73
2023/03/22 11:03:35;;;;;;;;;9.00;5.00;;;;;14.08;66.80;100262.72;5073231;28;45790;-74
2023/03/22 11:06:05;;;;;;;;;5.75;4.00;;;;;14.07;66.49;100242.59;5073453;27;45764;-73
2023/03/22 11:08:51;;;;;;;;;4.50;4.00;;;;;14.17;66.55;100259.22;5073465;27;45900;-73
2023/03/22 11:11:29;;;;;;;;;6.00;5.00;;;;;14.24;66.78;100261.16;5072980;27;46775;-74
2023/03/22 11:13:59;;;;;;;;;7.50;6.00;;;;;14.32;66.60;100259.59;5073419;27;46254;-73
2023/03/22 11:19:57;;;;;;;;;5.50;5.00;;;;;14.48;65.73;100257.25;5073216;28;45632;-74
2023/03/22 11:22:41;;;;;;;;;6.00;4.25;;;;;14.56;66.02;100265.28;5073163;27;45900;-73
2023/03/22 11:25:19;;;;;;;;;7.75;5.50;;;;;14.57;65.82;100262.53;5073306;27;47194;-73
2023/03/22 11:28:04;;;;;;;;;8.75;5.75;;;;;14.64;66.07;100260.13;5073528;27;45636;-73
2023/03/22 11:30:31;;;;;;;;;6.75;5.00;;;;;14.67;65.70;100262.50;5087447;27;45662;-72
2023/03/22 11:33:21;;;;;;;;;5.00;5.00;;;;;14.70;65.55;100254.28;5073048;27;45621;-74
2023/03/22 11:35:56;;;;;;;;;7.50;6.00;;;;;14.72;65.45;100260.25;5072970;28;46030;-73
2023/03/22 11:38:36;;;;;;;;;3.75;3.50;;;;;14.65;65.29;100235.41;5072999;27;45590;-74
2023/03/22 11:41:06;;;;;;;;;5.00;4.25;;;;;14.80;64.99;100251.59;5074133;27;45677;-73
2023/03/22 11:43:39;;;;;;;;;3.00;3.00;;;;;14.83;64.79;100249.53;5073475;27;47624;-75
2023/03/22 11:46:07;;;;;;;;;3.75;3.75;;;;;14.85;64.83;100254.63;5072993;27;46302;-74
2023/03/22 11:48:34;;;;;;;;;4.25;4.00;;;;;14.86;64.78;100243.09;5071941;27;45948;-72
2023/03/22 11:51:14;;;;;;;;;4.25;3.00;;;;;14.93;64.90;100234.47;5088026;27;45703;-72
2023/03/22 11:53:44;;;;;;;;;4.25;3.75;;;;;14.98;64.72;100244.59;5073224;27;45554;-73
2023/03/22 11:56:14;;;;;;;;;5.00;4.00;;;;;14.98;63.93;100220.84;5088650;27;46031;-71
2023/03/22 11:59:02;;;;;;;;;6.50;4.75;;;;;15.05;63.88;100245.69;5073481;28;45743;-72
2023/03/22 12:01:37;;;;;;;;;3.50;3.50;;;;;15.09;63.97;100239.94;5074206;27;45796;-72
2023/03/22 12:04:12;;;;;;;;;4.00;4.00;;;;;15.15;63.85;100248.25;5074357;27;45700;-73
2023/03/22 12:06:40;;;;;;;;;5.00;4.00;;;;;15.11;63.37;100235.34;5073454;27;45691;-73
2023/03/22 12:09:38;;;;;;;;;4.25;3.00;;;;;15.20;63.60;100236.28;5072589;27;45856;-73
2023/03/22 12:12:26;;;;;;;;;4.75;3.75;;;;;15.23;63.33;100238.63;5068670;27;45622;-73
2023/03/22 12:15:07;;;;;;;;;3.00;3.00;;;;;15.28;63.12;100243.44;5071147;28;47847;-73
2023/03/22 12:17:49;;;;;;;;;5.00;4.00;;;;;15.31;62.62;100251.09;5072629;28;46128;-74
2023/03/22 12:20:45;;;;;;;;;3.00;3.00;;;;;15.34;62.35;100232.28;5072201;27;45712;-73
2023/03/22 12:23:15;;;;;;;;;4.00;4.00;;;;;15.35;62.57;100231.31;5072933;27;45672;-74
2023/03/22 12:25:48;;;;;;;;;5.00;3.75;;;;;15.40;62.26;100235.19;5072828;27;46507;-74
2023/03/22 12:28:24;;;;;;;;;4.00;3.25;;;;;15.39;62.26;100225.59;5072955;27;46207;-74
2023/03/22 12:30:52;;;;;;;;;4.25;4.25;;;;;15.36;62.15;100214.50;5072756;27;45594;-74
2023/03/22 12:33:26;;;;;;;;;3.50;2.50;;;;;15.43;62.15;100205.84;5072890;27;45994;-73
2023/03/22 12:35:56;;;;;;;;;4.25;4.00;;;;;15.41;61.94;100191.97;5072461;27;45637;-73
2023/03/22 12:38:22;;;;;;;;;4.50;3.00;;;;;15.49;61.81;100194.66;5072902;28;46172;-74
2023/03/22 12:40:49;;;;;;;;;4.25;3.50;;;;;15.50;61.79;100192.84;5071734;27;45838;-74
2023/03/22 12:43:52;;;;;;;;;4.75;3.50;;;;;15.57;61.69;100204.53;5072213;27;45764;-74
2023/03/22 12:49:45;;;;;;;;;5.00;4.00;;;;;15.61;61.48;100197.13;5066638;28;46000;-76
2023/03/22 12:52:16;;;;;;;;;5.00;5.00;;;;;15.63;61.09;100208.38;5071697;27;45601;-73